Impacts TAF Board
For situational awareness. Not to be used for flight planning purposes.
IDs:

KGCK - Garden City Rgnl, KS, US

Issued at 1120 UTC 30 Oct 2020
Updated at 1637 UTC 30 Oct 2020
Potential Impact None Slight Moderate High
Time1554Z 30/17Z 30/18Z 30/19Z 30/20Z 30/21Z 30/22Z 30/23Z 31/00Z 31/01Z 31/02Z 31/03Z 31/04Z 31/05Z>>
Type OBS PRVL PRVL PRVL PRVL PRVL PRVL PRVL PRVL PRVL PRVL PRVL PRVL PRVL
VIS 10 >6 >6 >6 >6 >6 >6 >6 >6 >6 >6 >6 >6 >6
CIG -- -- -- -- -- -- -- -- -- -- -- -- -- --
Cover CLR FEW FEW FEW FEW FEW FEW FEW FEW FEW FEW FEW FEW FEW
FltCat VFR VFR VFR VFR VFR VFR VFR VFR VFR VFR VFR VFR VFR VFR
WX -- -- -- -- -- -- -- -- -- -- -- -- -- --
WDir VRB VRB VRB VRB VRB VRB VRB VRB VRB VRB VRB VRB 200 200
WSpd 0 6 6 6 6 6 6 6 6 6 6 6 8 8
WGst -- -- -- -- -- -- -- -- -- -- -- -- -- --
Raw TAF
KGCK 301120Z 3012/3112 VRB06KT P6SM FEW250
  FM310400 20008KT P6SM FEW250 WS020/21045KT
  FM310900 22008KT 2SM BR BKN001


Raw METAR
KGCK 301554Z 00000KT 10SM CLR 09/04 A3022 RMK AO2 SLP236 T00940039
KGCK 301454Z 27003KT 10SM CLR 04/02 A3023 RMK AO2 SLP244 T00390022 53011
KGCK 301354Z 25005KT 10SM CLR 01/M01 A3021 RMK AO2 SLP241 T00061006

METAR Board
Radar Display
Forecast Discussion
For situational awareness. Not to be used for flight planning purposes.